KMIB/MIB METAR and TAF weather

Enter ICAO airport designator
Station Type Date Time Source
KMIB METAR 2021/05/11 17:07 UTC NOAA

KMIB 111707Z AUTO 18011G15KT 10SM CLR 17/M08 A3025 RMK AO2 WSHFT 06 SLP257 $


Station Type Date Time Source
KMIB Decoded METAR 2021/05/11 17:07 UTC NOAA

Minot Air Force Base, ND, United States (KMIB) 48-25N 101-21W
May 11, 2021 - 01:07 PM EDT / 2021.05.11 1707 UTC
Wind: from the S (180 degrees) at 13 MPH (11 KT) gusting to 17 MPH (15 KT):0
Visibility: 10 mile(s):0
Sky conditions: clear
Temperature: 62 F (17 C)
Dew Point: 17 F (-8 C)
Relative Humidity: 17%
Pressure (altimeter): 30.25 in. Hg (1024 hPa)
ob: KMIB 111707Z AUTO 18011G15KT 10SM CLR 17/M08 A3025 RMK AO2 WSHFT 06 SLP257
cycle: 17

Station Type Date Time Source
KMIB TAF 2021/05/11 17:54 UTC NOAA

TAF TAF KMIB 111700Z 1117/1223 VRB06KT 9999 FEW150 QNH3016INS
BECMG 1213/1214 20010G15KT 9999 SCT080 QNH3010INS TX19/1122Z TN03/1211Z

Example: see airport list